Addison, Texas
Current Conditions -  °F | °C
As of 6:47 AM on Friday 28 Nov 2014 (Local Time) from KADS Reporting Station
Clear Clear  
Wind Chill: 37°   Ceiling: Unl
Heat Index: 43°   Visibility: 13mi
Dew Point: 30°   Wind: 10mph
Humidity: 61%   Direction: 150°SSE
Pressure: 30.26"   Gusts: NA
Location:  32.95°N, 96.82°W
Report Text: KADS 281247Z 15009KT 13SM SKC 06/M01 A3026
Loading
Personal Weather Stations






























Interactive Weather Map New forecast layout! Learn more

10-Day Weather Forecast

Advertisements
Track Severe Weather on mobile